Time;durP1;ratioP1;P1;durP2;ratioP2;P2;SDS_P1;SDS_P2;PMS_P1;PMS_P2;Temp;Humidity;BMP_temperature;BMP_pressure;BME280_temperature;BME280_humidity;BME280_pressure;Samples;Min_cycle;Max_cycle;Signal;HPM_P1;HPM_P2
2023/03/08 00:01:21;;;;;;;39.03;9.70;;;;;;;2.59;60.58;94920.13;5069386;28;20045;-76
2023/03/08 00:03:50;;;;;;;33.00;9.70;;;;;;;2.60;61.02;94926.28;5071928;28;20048;-76
2023/03/08 00:06:17;;;;;;;59.33;11.98;;;;;;;2.58;61.20;94923.91;5071073;28;20049;-75
2023/03/08 00:08:44;;;;;;;24.50;8.82;;;;;;;2.57;61.62;94918.84;5072126;28;20040;-76
2023/03/08 00:11:12;;;;;;;36.63;9.90;;;;;;;2.54;61.94;94924.81;5071509;28;20400;-75
2023/03/08 00:13:39;;;;;;;36.47;10.35;;;;;;;2.52;62.51;94930.50;5071601;28;20056;-76
2023/03/08 00:16:10;;;;;;;27.38;10.10;;;;;;;2.52;62.64;94935.06;5071121;28;20044;-76
2023/03/08 00:18:36;;;;;;;32.67;11.00;;;;;;;2.52;62.77;94940.44;5071307;28;20549;-75
2023/03/08 00:21:06;;;;;;;26.25;10.75;;;;;;;2.47;63.19;94938.66;5070749;28;20075;-74
2023/03/08 00:23:32;;;;;;;23.95;10.07;;;;;;;2.44;63.60;94938.47;5051616;28;20065;-76
2023/03/08 00:25:59;;;;;;;24.25;11.27;;;;;;;2.45;63.52;94940.84;5051769;28;20051;-75
2023/03/08 00:28:26;;;;;;;22.25;11.02;;;;;;;2.42;63.97;94940.66;5056035;28;20044;-75
2023/03/08 00:30:56;;;;;;;22.42;10.27;;;;;;;2.42;64.17;94946.03;5069179;28;20082;-76
2023/03/08 00:33:24;;;;;;;25.45;12.13;;;;;;;2.41;64.31;94929.13;5069645;28;20515;-75
2023/03/08 00:35:56;;;;;;;22.10;10.55;;;;;;;2.40;64.14;94932.88;5070950;28;20040;-76
2023/03/08 00:38:22;;;;;;;20.80;10.73;;;;;;;2.35;64.45;94936.50;5070018;28;20439;-76
2023/03/08 00:40:49;;;;;;;21.58;10.65;;;;;;;2.37;64.33;94938.06;5071269;28;20461;-76
2023/03/08 00:43:15;;;;;;;24.50;10.63;;;;;;;2.28;65.01;94936.09;5070495;28;20066;-76
2023/03/08 00:45:41;;;;;;;23.65;11.48;;;;;;;2.33;64.47;94944.03;5070928;28;20057;-75
2023/03/08 00:48:08;;;;;;;20.83;10.20;;;;;;;2.33;64.71;94946.72;5070636;28;20429;-75
2023/03/08 00:50:36;;;;;;;21.52;10.02;;;;;;;2.33;64.55;94949.41;5070515;28;20041;-75
2023/03/08 00:53:02;;;;;;;23.00;10.45;;;;;;;2.30;64.66;94944.66;5070615;28;20045;-76
2023/03/08 00:55:29;;;;;;;22.17;10.48;;;;;;;2.32;64.30;94939.75;5071005;28;20044;-75
2023/03/08 00:57:55;;;;;;;20.38;9.80;;;;;;;2.31;64.52;94940.88;5071028;28;20044;-75
2023/03/08 01:00:22;;;;;;;19.77;10.40;;;;;;;2.28;64.59;94946.81;5070078;28;20044;-75
2023/03/08 01:02:49;;;;;;;20.77;10.40;;;;;;;2.22;64.45;94931.91;5070565;28;20048;-75
2023/03/08 01:05:15;;;;;;;20.60;10.27;;;;;;;2.22;64.59;94939.97;5069971;28;20040;-76
2023/03/08 01:07:43;;;;;;;21.70;9.65;;;;;;;2.25;64.26;94939.38;5070577;28;20504;-75
2023/03/08 01:10:11;;;;;;;20.70;9.32;;;;;;;2.23;64.04;94936.19;5070384;28;20067;-75
2023/03/08 01:12:38;;;;;;;19.10;9.30;;;;;;;2.29;63.17;94934.97;5070765;28;20055;-76
2023/03/08 01:15:06;;;;;;;20.63;10.13;;;;;;;2.29;63.40;94943.03;5070334;28;20415;-75
2023/03/08 01:17:32;;;;;;;17.98;9.20;;;;;;;2.21;63.65;94943.75;5070727;28;20044;-75
2023/03/08 01:19:59;;;;;;;21.33;10.48;;;;;;;2.13;64.06;94939.06;5070504;28;20040;-75
2023/03/08 01:22:25;;;;;;;19.25;9.32;;;;;;;2.10;63.97;94934.31;5069691;28;20039;-75
2023/03/08 01:24:53;;;;;;;18.90;9.18;;;;;;;2.05;64.16;94932.53;5070323;28;20118;-75
2023/03/08 01:27:19;;;;;;;22.30;10.77;;;;;;;1.97;64.48;94935.88;5070159;28;20750;-75
2023/03/08 01:29:47;;;;;;;20.40;9.73;;;;;;;1.90;65.03;94934.69;5069043;28;20052;-73
2023/03/08 01:32:13;;;;;;;18.80;9.45;;;;;;;1.87;65.48;94927.22;5068671;28;20037;-75
2023/03/08 01:34:39;;;;;;;17.05;8.18;;;;;;;1.88;65.50;94926.97;5070272;28;20048;-75
2023/03/08 01:37:06;;;;;;;20.25;9.18;;;;;;;1.88;65.53;94924.28;5070049;28;20048;-76
2023/03/08 01:39:32;;;;;;;18.10;8.75;;;;;;;1.91;65.38;94926.34;5070079;28;20044;-76
2023/03/08 01:42:05;;;;;;;19.75;9.57;;;;;;;1.96;64.92;94928.94;5069578;28;20047;-75
2023/03/08 01:44:51;;;;;;;17.25;8.55;;;;;;;1.91;65.06;94920.19;5069871;28;20040;-76
2023/03/08 01:47:20;;;;;;;19.65;8.52;;;;;;;1.94;65.00;94927.66;5069533;28;20036;-75
2023/03/08 01:49:47;;;;;;;19.25;9.05;;;;;;;1.91;64.92;94914.81;5070153;28;20051;-75
2023/03/08 01:52:16;;;;;;;20.65;9.30;;;;;;;1.87;65.06;94919.97;5069476;28;20419;-75
2023/03/08 01:54:46;;;;;;;17.65;9.35;;;;;;;1.82;65.27;94909.34;5069637;28;20052;-75
2023/03/08 01:57:19;;;;;;;19.75;9.13;;;;;;;1.85;65.26;94906.06;5069458;28;20094;-75
2023/03/08 01:59:48;;;;;;;23.88;10.07;;;;;;;1.78;65.32;94922.56;5069012;28;20044;-75
2023/03/08 02:02:15;;;;;;;16.60;8.98;;;;;;;1.76;65.29;94919.38;5067855;28;20518;-75
2023/03/08 02:04:43;;;;;;;21.13;9.43;;;;;;;1.77;65.16;94914.78;5071312;28;20301;-76
2023/03/08 02:07:09;;;;;;;17.63;8.70;;;;;;;1.76;65.42;94913.22;5070626;28;20442;-76
2023/03/08 02:09:36;;;;;;;15.27;7.78;;;;;;;1.74;65.45;94910.84;5070415;28;20045;-75
2023/03/08 02:12:07;;;;;;;17.95;8.63;;;;;;;1.67;65.57;94899.72;5068857;28;20063;-76
2023/03/08 02:14:35;;;;;;;20.88;9.05;;;;;;;1.69;65.18;94902.09;5069703;28;20098;-75
2023/03/08 02:17:01;;;;;;;19.33;9.02;;;;;;;1.70;64.96;94899.09;5073242;28;20511;-75
2023/03/08 02:19:35;;;;;;;19.15;8.38;;;;;;;1.69;65.00;94896.72;5073262;28;20037;-74
2023/03/08 02:22:08;;;;;;;19.80;8.23;;;;;;;1.67;65.03;94894.34;5073214;28;20048;-74
2023/03/08 02:24:36;;;;;;;17.45;8.20;;;;;;;1.64;65.23;94889.56;5073749;28;20137;-74
2023/03/08 02:27:06;;;;;;;19.35;8.60;;;;;;;1.60;65.33;94888.56;5072833;28;20503;-74
2023/03/08 02:29:32;;;;;;;14.27;7.75;;;;;;;1.59;65.42;94881.59;5073824;28;20041;-74
2023/03/08 02:31:59;;;;;;;17.77;8.57;;;;;;;1.59;65.50;94876.22;5073173;28;20050;-74
2023/03/08 02:34:25;;;;;;;19.90;8.73;;;;;;;1.58;65.34;94887.28;5072927;28;20518;-75
2023/03/08 02:36:52;;;;;;;16.20;7.78;;;;;;;1.58;65.34;94888.06;5073607;28;20045;-73
2023/03/08 02:39:18;;;;;;;18.50;8.70;;;;;;;1.57;65.43;94889.16;5072600;28;20067;-74
2023/03/08 02:41:46;;;;;;;14.10;7.93;;;;;;;1.53;65.61;94888.94;5073173;28;20040;-73
2023/03/08 02:44:13;;;;;;;18.95;9.05;;;;;;;1.52;65.59;94890.03;5073025;28;20565;-74
2023/03/08 02:46:39;;;;;;;19.20;8.30;;;;;;;1.53;65.51;94888.94;5073598;28;20052;-74
2023/03/08 02:49:05;;;;;;;18.08;8.63;;;;;;;1.51;65.50;94884.97;5073152;28;20043;-73
2023/03/08 02:51:32;;;;;;;18.75;8.23;;;;;;;1.56;65.30;94882.97;5073382;28;20051;-74
2023/03/08 02:53:58;;;;;;;19.02;8.20;;;;;;;1.53;65.60;94874.75;5073389;28;20040;-74
2023/03/08 02:56:25;;;;;;;16.75;8.18;;;;;;;1.53;65.84;94872.06;5072784;28;20048;-73
2023/03/08 02:58:53;;;;;;;16.90;8.23;;;;;;;1.50;65.56;94878.81;5073520;28;20052;-73
2023/03/08 03:01:19;;;;;;;20.33;8.75;;;;;;;1.54;65.51;94876.31;5072492;28;20040;-76
2023/03/08 03:03:46;;;;;;;20.98;9.10;;;;;;;1.49;65.82;94871.06;5072894;28;20048;-73
2023/03/08 03:06:14;;;;;;;20.25;9.32;;;;;;;1.46;66.08;94877.81;5072966;28;20075;-74
2023/03/08 03:08:41;;;;;;;19.80;8.73;;;;;;;1.43;65.93;94878.41;5073946;28;20088;-75
2023/03/08 03:11:11;;;;;;;16.95;7.93;;;;;;;1.41;66.24;94879.78;5073472;28;20525;-76
2023/03/08 03:13:38;;;;;;;18.20;7.93;;;;;;;1.38;66.26;94881.19;5074227;28;20056;-75
2023/03/08 03:16:07;;;;;;;22.70;8.55;;;;;;;1.34;66.42;94880.16;5074442;28;20068;-75
2023/03/08 03:18:34;;;;;;;17.35;8.27;;;;;;;1.32;66.68;94873.53;5075882;28;20044;-75
2023/03/08 03:21:03;;;;;;;17.17;8.15;;;;;;;1.33;66.69;94883.16;5075590;28;20044;-75
2023/03/08 03:23:30;;;;;;;20.65;8.40;;;;;;;1.29;66.96;94883.72;5075200;28;20499;-75
2023/03/08 03:25:56;;;;;;;18.90;8.88;;;;;;;1.27;66.96;94872.50;5075685;28;20045;-76
2023/03/08 03:28:23;;;;;;;17.63;8.38;;;;;;;1.25;66.95;94872.03;5076306;28;20048;-76
2023/03/08 03:30:49;;;;;;;22.02;9.73;;;;;;;1.23;67.31;94871.50;5077134;28;20060;-76
2023/03/08 03:33:17;;;;;;;20.85;8.93;;;;;;;1.22;67.46;94872.59;5076403;28;20036;-73
2023/03/08 03:35:43;;;;;;;18.60;9.13;;;;;;;1.19;67.39;94870.50;5074089;28;20045;-73
2023/03/08 03:38:10;;;;;;;17.83;8.35;;;;;;;1.22;67.79;94861.88;5073894;28;20033;-76
2023/03/08 03:40:36;;;;;;;17.88;9.40;;;;;;;1.27;67.66;94861.78;5074374;28;20045;-73
2023/03/08 03:43:03;;;;;;;20.08;9.20;;;;;;;1.25;67.66;94866.66;5073086;28;20047;-73
2023/03/08 03:45:29;;;;;;;23.40;9.32;;;;;;;1.19;67.91;94859.78;5073442;28;20492;-75
2023/03/08 03:47:56;;;;;;;21.83;9.05;;;;;;;1.15;68.31;94856.13;5075191;28;20044;-76
2023/03/08 03:50:23;;;;;;;18.73;8.07;;;;;;;1.17;68.02;94858.50;5072320;28;20047;-73
2023/03/08 03:52:50;;;;;;;17.23;9.02;;;;;;;1.12;68.45;94859.38;5072526;28;20047;-76
2023/03/08 03:55:17;;;;;;;17.83;8.68;;;;;;;1.12;68.40;94863.94;5071911;28;20037;-74
2023/03/08 03:57:43;;;;;;;18.60;9.10;;;;;;;1.03;68.98;94863.81;5072506;28;20044;-73
2023/03/08 04:00:11;;;;;;;16.33;8.30;;;;;;;0.97;69.05;94865.00;5069729;28;20492;-73
2023/03/08 04:02:37;;;;;;;20.02;9.07;;;;;;;0.96;69.15;94866.09;5071684;28;20048;-74
2023/03/08 04:05:04;;;;;;;20.48;9.05;;;;;;;0.96;68.96;94863.41;5072009;28;20411;-73
2023/03/08 04:07:32;;;;;;;23.67;9.60;;;;;;;0.95;68.97;94861.81;5072107;28;20052;-74
2023/03/08 04:09:59;;;;;;;20.02;9.65;;;;;;;0.95;69.00;94862.63;5072140;28;20048;-76
2023/03/08 04:12:26;;;;;;;16.92;8.45;;;;;;;0.92;69.33;94863.19;5071224;28;20086;-75
2023/03/08 04:14:53;;;;;;;21.35;9.75;;;;;;;0.93;69.22;94863.97;5072403;28;20044;-75
2023/03/08 04:17:20;;;;;;;19.80;9.27;;;;;;;0.94;69.25;94861.03;5071985;28;20037;-75
2023/03/08 04:19:48;;;;;;;18.25;9.32;;;;;;;0.90;69.22;94860.00;5072174;28;20040;-76
2023/03/08 04:22:14;;;;;;;17.40;9.40;;;;;;;0.94;69.32;94854.84;5071425;28;20040;-76
2023/03/08 04:24:42;;;;;;;18.77;9.63;;;;;;;0.91;69.14;94855.44;5071939;28;20041;-74
2023/03/08 04:27:09;;;;;;;18.15;9.40;;;;;;;0.94;69.13;94847.63;5070906;28;20131;-75
2023/03/08 04:29:35;;;;;;;21.85;9.25;;;;;;;0.91;69.28;94842.84;5071687;28;20454;-75
2023/03/08 04:32:02;;;;;;;18.48;8.98;;;;;;;0.96;68.97;94847.31;5067939;28;20518;-73
2023/03/08 04:34:28;;;;;;;19.42;9.88;;;;;;;0.92;69.11;94835.59;5070993;28;20405;-74
2023/03/08 04:36:55;;;;;;;23.17;10.18;;;;;;;0.95;69.26;94830.44;5070892;28;20049;-73
2023/03/08 04:39:21;;;;;;;24.63;9.18;;;;;;;0.99;69.03;94830.63;5068985;28;20055;-76
2023/03/08 04:41:49;;;;;;;16.90;8.30;;;;;;;0.98;69.16;94823.69;5071241;28;20052;-73
2023/03/08 04:44:15;;;;;;;17.92;8.40;;;;;;;1.01;69.00;94820.44;5070374;28;20044;-74
2023/03/08 04:46:42;;;;;;;19.00;8.10;;;;;;;1.09;68.89;94824.31;5071303;28;20048;-73
2023/03/08 04:49:09;;;;;;;19.80;9.90;;;;;;;1.08;68.72;94820.84;5070811;28;20060;-74
2023/03/08 04:51:35;;;;;;;18.42;8.07;;;;;;;1.10;68.41;94810.63;5071228;28;20423;-74
2023/03/08 04:54:03;;;;;;;17.25;8.95;;;;;;;1.18;68.76;94811.81;5070878;28;20037;-73
2023/03/08 04:56:29;;;;;;;16.90;8.77;;;;;;;1.21;68.53;94805.88;5071212;28;20131;-74
2023/03/08 04:58:57;;;;;;;18.02;8.07;;;;;;;1.27;67.86;94802.78;5071982;28;20048;-74
2023/03/08 05:01:24;;;;;;;19.70;8.93;;;;;;;1.29;67.74;94803.28;5070940;28;20048;-74
2023/03/08 05:03:52;;;;;;;19.92;8.30;;;;;;;1.35;67.59;94795.13;5072410;28;20056;-73
2023/03/08 05:06:19;;;;;;;19.67;8.85;;;;;;;1.38;67.56;94797.25;5072301;28;20128;-73
2023/03/08 05:08:46;;;;;;;18.50;8.93;;;;;;;1.40;67.37;94787.78;5072184;28;20044;-73
2023/03/08 05:11:17;;;;;;;21.58;9.35;;;;;;;1.45;67.44;94786.91;5072662;28;20044;-76
2023/03/08 05:13:44;;;;;;;19.73;9.07;;;;;;;1.49;67.30;94780.66;5073007;28;20051;-73
2023/03/08 05:16:12;;;;;;;22.52;9.57;;;;;;;1.52;67.14;94773.91;5072342;28;20044;-76
2023/03/08 05:18:38;;;;;;;22.48;9.50;;;;;;;1.55;67.39;94763.34;5071688;28;20048;-74
2023/03/08 05:21:07;;;;;;;22.83;10.02;;;;;;;1.59;67.24;94765.44;5070842;28;20052;-74
2023/03/08 05:23:34;;;;;;;18.55;9.70;;;;;;;1.70;66.92;94762.25;5071828;28;20037;-74
2023/03/08 05:26:02;;;;;;;26.45;9.25;;;;;;;1.81;66.75;94763.63;5074388;28;20446;-73
2023/03/08 05:28:31;;;;;;;20.20;9.77;;;;;;;1.92;66.41;94768.75;5072367;28;20514;-74
2023/03/08 05:31:02;;;;;;;17.50;8.90;;;;;;;1.99;66.19;94769.16;5070702;28;20086;-73
2023/03/08 05:33:30;;;;;;;17.63;8.60;;;;;;;2.08;66.07;94764.63;5071911;28;20127;-76
2023/03/08 05:35:57;;;;;;;20.00;9.10;;;;;;;2.11;65.88;94764.03;5071159;28;20098;-73
2023/03/08 05:38:24;;;;;;;18.15;8.65;;;;;;;2.14;66.00;94757.25;5070621;28;20044;-73
2023/03/08 05:40:51;;;;;;;16.63;8.57;;;;;;;2.17;65.81;94760.16;5070761;28;20522;-76
2023/03/08 05:43:18;;;;;;;20.20;8.65;;;;;;;2.20;65.87;94756.06;5069645;28;20041;-74
2023/03/08 05:45:54;;;;;;;19.48;8.90;;;;;;;2.23;65.45;94758.13;5070482;28;20040;-73
2023/03/08 05:48:20;;;;;;;17.40;8.98;;;;;;;2.20;65.60;94762.25;5069887;28;20420;-73
2023/03/08 05:50:48;;;;;;;17.80;7.88;;;;;;;2.23;65.37;94744.72;5069607;28;20037;-73
2023/03/08 05:53:15;;;;;;;20.00;9.05;;;;;;;2.27;65.34;94730.38;5069811;28;20041;-73
2023/03/08 05:55:41;;;;;;;19.42;8.68;;;;;;;2.28;65.58;94726.56;5070500;28;20051;-73
2023/03/08 05:58:08;;;;;;;19.80;8.88;;;;;;;2.32;65.27;94729.47;5070258;28;20045;-73
2023/03/08 06:00:34;;;;;;;19.80;8.30;;;;;;;2.30;65.08;94723.59;5067841;28;20052;-73
2023/03/08 06:03:02;;;;;;;16.10;7.85;;;;;;;2.21;65.22;94726.22;5070761;28;20048;-73
2023/03/08 06:05:29;;;;;;;17.50;8.55;;;;;;;2.22;65.25;94721.66;5070548;28;20115;-74
2023/03/08 06:07:57;;;;;;;17.90;8.13;;;;;;;2.24;65.35;94728.28;5070390;28;20060;-74
2023/03/08 06:10:26;;;;;;;20.00;8.63;;;;;;;2.30;65.28;94735.16;5070680;28;20055;-76
2023/03/08 06:12:53;;;;;;;16.98;8.65;;;;;;;2.18;66.13;94742.94;5073530;28;20044;-74
2023/03/08 06:15:20;;;;;;;20.23;9.70;;;;;;;2.04;67.17;94742.19;5072739;28;20055;-74
2023/03/08 06:17:46;;;;;;;18.58;9.50;;;;;;;1.91;67.29;94738.44;5075943;28;20414;-74
2023/03/08 06:20:15;;;;;;;18.02;8.88;;;;;;;2.05;67.08;94746.47;5075074;28;20044;-73
2023/03/08 06:22:41;;;;;;;22.80;9.57;;;;;;;2.02;67.62;94744.38;5073233;28;20049;-75
2023/03/08 06:25:10;;;;;;;20.90;9.77;;;;;;;2.10;67.23;94741.00;5075315;28;20043;-75
2023/03/08 06:27:36;;;;;;;18.08;8.18;;;;;;;2.21;67.41;94742.34;5077374;28;20051;-75
2023/03/08 06:30:03;;;;;;;19.15;9.27;;;;;;;2.31;66.80;94746.69;5075073;28;20064;-74
2023/03/08 06:32:30;;;;;;;23.48;9.98;;;;;;;2.39;66.60;94742.44;5076827;28;20037;-75
2023/03/08 06:34:56;;;;;;;19.92;9.82;;;;;;;2.43;66.84;94749.59;5078451;28;20135;-74
2023/03/08 06:37:22;;;;;;;21.38;10.25;;;;;;;2.43;66.78;94754.19;5077194;28;20052;-75
2023/03/08 06:39:49;;;;;;;20.63;10.98;;;;;;;2.42;66.86;94749.91;5077018;28;20048;-74
2023/03/08 06:42:17;;;;;;;20.65;10.07;;;;;;;2.52;66.57;94753.16;5076370;28;20036;-74
2023/03/08 06:44:43;;;;;;;20.52;9.85;;;;;;;2.59;66.45;94752.72;5076348;28;20694;-73
2023/03/08 06:47:10;;;;;;;23.20;10.18;;;;;;;2.70;66.18;94748.66;5075646;28;20052;-77
2023/03/08 06:49:36;;;;;;;23.50;10.65;;;;;;;2.79;65.95;94752.22;5072816;28;20515;-75
2023/03/08 06:52:03;;;;;;;22.90;10.38;;;;;;;2.84;65.92;94745.91;5068009;28;20048;-74
2023/03/08 06:54:31;;;;;;;22.10;9.90;;;;;;;2.97;65.76;94746.91;5068555;28;20135;-74
2023/03/08 06:57:04;;;;;;;20.92;9.93;;;;;;;3.00;65.26;94747.09;5075440;28;20037;-82
2023/03/08 06:59:33;;;;;;;20.55;10.73;;;;;;;2.74;65.97;94751.53;5080040;28;20532;-75
2023/03/08 07:01:59;;;;;;;18.15;9.75;;;;;;;2.97;65.50;94749.59;5061205;28;20052;-75
2023/03/08 07:04:26;;;;;;;19.95;10.05;;;;;;;3.08;65.16;94761.69;5072671;28;20078;-75
2023/03/08 07:06:52;;;;;;;21.45;10.52;;;;;;;2.91;65.30;94761.59;5074313;28;20048;-75
2023/03/08 07:09:18;;;;;;;20.92;10.55;;;;;;;2.87;65.74;94759.53;5072604;28;20044;-75
2023/03/08 07:11:45;;;;;;;21.40;10.00;;;;;;;2.91;65.80;94759.69;5073267;28;20048;-75
2023/03/08 07:14:11;;;;;;;22.85;10.70;;;;;;;3.07;65.71;94768.16;5078139;28;20051;-74
2023/03/08 07:16:39;;;;;;;21.20;10.35;;;;;;;3.18;64.93;94768.69;5076827;28;20051;-75
2023/03/08 07:19:06;;;;;;;21.02;9.73;;;;;;;3.23;65.28;94771.25;5075641;28;20041;-75
2023/03/08 07:21:32;;;;;;;23.75;11.13;;;;;;;3.28;65.13;94771.91;5072102;28;20048;-75
2023/03/08 07:23:58;;;;;;;23.90;10.82;;;;;;;3.36;64.90;94760.41;5073495;28;20056;-75
2023/03/08 07:26:25;;;;;;;20.38;10.27;;;;;;;3.44;64.89;94760.72;5075849;28;20063;-75
2023/03/08 07:28:51;;;;;;;22.25;10.70;;;;;;;3.47;64.47;94755.53;5078033;28;20047;-74
2023/03/08 07:31:18;;;;;;;23.23;10.52;;;;;;;3.50;64.54;94759.47;5075795;28;20045;-75
2023/03/08 07:33:46;;;;;;;26.45;11.77;;;;;;;3.46;64.52;94756.63;5075766;28;20052;-73
2023/03/08 07:36:13;;;;;;;19.73;10.52;;;;;;;3.49;64.65;94764.06;5076242;28;20053;-74
2023/03/08 07:38:39;;;;;;;21.90;10.75;;;;;;;3.57;64.60;94770.59;5075004;28;20048;-73
2023/03/08 07:41:06;;;;;;;23.08;11.38;;;;;;;3.74;64.00;94765.25;5071097;28;20064;-72
2023/03/08 07:43:32;;;;;;;25.63;11.73;;;;;;;3.80;63.90;94764.00;5070299;28;20051;-74
2023/03/08 07:46:01;;;;;;;23.85;11.55;;;;;;;3.74;63.76;94769.84;5069654;28;20049;-74
2023/03/08 07:48:28;;;;;;;20.65;10.95;;;;;;;3.90;63.45;94763.69;5069036;28;20534;-73
2023/03/08 07:51:01;;;;;;;22.40;11.57;;;;;;;3.95;63.59;94752.00;5069916;28;20044;-73
2023/03/08 07:53:27;;;;;;;23.95;11.35;;;;;;;4.05;62.88;94753.59;5069248;28;20058;-73
2023/03/08 07:55:54;;;;;;;22.10;11.35;;;;;;;4.08;62.46;94763.75;5069381;28;20049;-73
2023/03/08 07:58:21;;;;;;;22.02;11.82;;;;;;;4.09;62.55;94765.34;5068440;28;20663;-73
2023/03/08 08:00:47;;;;;;;20.30;10.35;;;;;;;4.12;62.64;94759.28;5068558;28;20080;-72
2023/03/08 08:03:14;;;;;;;21.58;10.05;;;;;;;4.22;62.31;94750.91;5071579;28;20063;-72
2023/03/08 08:05:40;;;;;;;18.88;9.70;;;;;;;4.30;62.03;94743.94;5071853;28;20538;-73
2023/03/08 08:08:09;;;;;;;23.83;11.02;;;;;;;4.33;61.81;94748.69;5072126;28;20491;-76
2023/03/08 08:10:35;;;;;;;20.90;10.20;;;;;;;4.37;62.28;94734.25;5072265;28;20075;-75
2023/03/08 08:13:02;;;;;;;22.88;10.80;;;;;;;4.50;61.76;94734.44;5071164;28;20497;-75
2023/03/08 08:15:29;;;;;;;19.38;10.18;;;;;;;4.57;61.50;94715.88;5072036;28;20048;-75
2023/03/08 08:17:56;;;;;;;20.42;10.30;;;;;;;4.64;61.15;94721.56;5071859;28;20044;-74
2023/03/08 08:20:23;;;;;;;21.95;10.68;;;;;;;4.52;61.72;94719.50;5070754;28;20040;-73
2023/03/08 08:22:52;;;;;;;19.10;9.70;;;;;;;4.71;61.46;94716.47;5071784;28;20101;-72
2023/03/08 08:25:20;;;;;;;19.67;10.68;;;;;;;4.75;60.75;94709.34;5071238;28;20040;-75
2023/03/08 08:27:47;;;;;;;18.65;9.40;;;;;;;4.97;60.61;94703.72;5071440;28;20063;-75
2023/03/08 08:30:15;;;;;;;21.65;10.38;;;;;;;5.17;60.01;94701.44;5067668;28;20047;-72
2023/03/08 08:32:41;;;;;;;23.08;10.82;;;;;;;5.34;59.83;94689.78;5071540;28;20392;-72
2023/03/08 08:35:08;;;;;;;17.23;9.60;;;;;;;5.50;59.75;94694.28;5070829;28;20043;-73
2023/03/08 08:37:35;;;;;;;20.48;10.40;;;;;;;5.74;59.80;94676.66;5071441;28;20048;-72
2023/03/08 08:40:02;;;;;;;21.63;10.10;;;;;;;5.91;58.95;94673.88;5070822;28;20048;-74
2023/03/08 08:42:30;;;;;;;18.67;9.75;;;;;;;5.90;58.92;94658.78;5071124;28;20553;-74
2023/03/08 08:44:56;;;;;;;18.23;9.88;;;;;;;6.04;59.63;94649.63;5071288;28;20059;-74
2023/03/08 08:47:23;;;;;;;20.80;10.63;;;;;;;6.12;59.14;94649.56;5070836;28;20044;-73
2023/03/08 08:49:49;;;;;;;17.70;9.88;;;;;;;6.15;58.50;94650.78;5071152;28;20037;-73
2023/03/08 08:52:16;;;;;;;16.27;9.02;;;;;;;6.22;57.94;94651.06;5070749;28;20415;-74
2023/03/08 08:54:42;;;;;;;19.60;9.48;;;;;;;5.98;57.98;94633.63;5071176;28;20514;-73
2023/03/08 08:57:09;;;;;;;20.08;10.60;;;;;;;5.96;58.86;94635.88;5070607;28;20408;-73
2023/03/08 08:59:37;;;;;;;18.23;9.88;;;;;;;6.16;57.64;94625.34;5070698;28;20412;-73
2023/03/08 09:02:04;;;;;;;22.20;11.00;;;;;;;6.32;56.42;94615.53;5062215;28;20052;-73
2023/03/08 09:04:30;;;;;;;18.98;8.93;;;;;;;6.37;55.99;94607.22;5071260;28;20052;-73
2023/03/08 09:06:57;;;;;;;17.00;9.77;;;;;;;6.44;56.40;94601.25;5071404;28;20044;-74
2023/03/08 09:09:25;;;;;;;16.88;9.32;;;;;;;6.38;56.17;94591.78;5071162;28;20491;-73
2023/03/08 09:11:52;;;;;;;14.55;8.75;;;;;;;6.58;56.20;94579.28;5070741;28;20037;-72
2023/03/08 09:14:18;;;;;;;15.52;8.68;;;;;;;6.70;55.26;94576.63;5070260;28;20043;-74
2023/03/08 09:16:46;;;;;;;20.33;9.52;;;;;;;6.79;55.25;94564.56;5066117;28;20052;-72
2023/03/08 09:19:13;;;;;;;15.98;9.00;;;;;;;6.88;54.93;94556.31;5069771;28;20707;-75
2023/03/08 09:21:39;;;;;;;15.07;8.40;;;;;;;7.00;54.73;94542.81;5070021;28;20125;-74
2023/03/08 09:24:08;;;;;;;18.05;9.65;;;;;;;7.05;54.34;94545.31;5069415;28;20048;-75
2023/03/08 09:26:35;;;;;;;15.75;8.43;;;;;;;6.99;53.88;94540.44;5070423;28;20052;-73
2023/03/08 09:29:04;;;;;;;14.85;8.27;;;;;;;6.94;54.43;94541.47;5070227;28;20045;-73
2023/03/08 09:31:30;;;;;;;18.35;9.20;;;;;;;7.01;54.06;94527.38;5066144;28;20450;-74
2023/03/08 09:33:59;;;;;;;19.15;9.93;;;;;;;7.10;53.38;94519.91;5069819;28;20048;-75
2023/03/08 09:36:27;;;;;;;18.75;9.73;;;;;;;6.96;53.97;94528.38;5069849;28;20432;-74
2023/03/08 09:38:54;;;;;;;15.07;8.52;;;;;;;6.90;54.16;94527.03;5070394;28;20048;-73
2023/03/08 09:41:34;;;;;;;19.83;9.20;;;;;;;6.96;53.99;94514.84;5069246;28;20048;-73
2023/03/08 09:44:13;;;;;;;19.95;10.25;;;;;;;6.97;53.86;94513.72;5070498;28;20041;-76
2023/03/08 09:46:46;;;;;;;28.23;10.60;;;;;;;6.98;53.59;94507.16;5070094;28;20067;-75
2023/03/08 09:49:18;;;;;;;22.35;10.50;;;;;;;6.81;53.48;94512.81;5070008;28;20169;-75
2023/03/08 09:51:49;;;;;;;26.02;10.88;;;;;;;6.80;54.42;94505.84;5069075;28;20051;-75
2023/03/08 09:54:20;;;;;;;23.63;11.25;;;;;;;6.70;53.98;94506.28;5084410;28;20055;-73
2023/03/08 09:56:49;;;;;;;18.23;10.50;;;;;;;6.65;54.05;94498.41;5069893;28;20045;-72
2023/03/08 09:59:21;;;;;;;21.73;10.82;;;;;;;6.74;53.45;94490.97;5069205;28;20048;-73
2023/03/08 10:01:57;;;;;;;22.08;10.88;;;;;;;6.67;53.62;94488.81;5066383;28;20056;-74
2023/03/08 10:04:46;;;;;;;19.33;10.43;;;;;;;6.79;53.89;94483.41;5069244;28;20044;-74
2023/03/08 10:07:24;;;;;;;19.00;10.13;;;;;;;6.78;53.00;94486.44;5070412;28;20048;-74
2023/03/08 10:10:02;;;;;;;23.20;11.20;;;;;;;6.83;53.02;94483.50;5070027;28;20051;-74
2023/03/08 10:12:36;;;;;;;21.85;10.82;;;;;;;6.78;53.37;94486.44;5083652;28;20041;-75
2023/03/08 10:15:09;;;;;;;21.27;10.80;;;;;;;6.95;53.38;94490.84;5070533;28;20040;-75
2023/03/08 10:17:42;;;;;;;21.58;10.57;;;;;;;7.03;53.88;94498.81;5071111;28;20048;-73
2023/03/08 10:20:18;;;;;;;23.05;10.75;;;;;;;7.07;52.90;94504.34;5071098;28;20108;-74
2023/03/08 10:22:49;;;;;;;26.30;11.10;;;;;;;7.11;52.96;94493.66;5073913;28;20041;-74
2023/03/08 10:25:23;;;;;;;21.75;11.20;;;;;;;7.10;53.31;94490.16;5075285;28;20044;-74
2023/03/08 10:27:53;;;;;;;22.13;11.23;;;;;;;6.93;53.90;94483.06;5077838;28;20045;-73
2023/03/08 10:30:22;;;;;;;21.70;10.60;;;;;;;6.93;53.72;94483.06;5072354;28;20052;-74
2023/03/08 10:32:50;;;;;;;23.85;11.27;;;;;;;6.89;53.79;94479.47;5074796;28;20466;-74
2023/03/08 10:35:31;;;;;;;23.35;11.13;;;;;;;6.95;53.92;94486.22;5073244;28;20044;-74
2023/03/08 10:37:58;;;;;;;31.52;11.38;;;;;;;7.00;53.91;94493.31;5075319;28;20044;-74
2023/03/08 10:40:24;;;;;;;26.67;11.02;;;;;;;7.10;53.81;94494.75;5078197;28;20055;-75
2023/03/08 10:42:53;;;;;;;27.90;10.82;;;;;;;7.18;54.49;94496.56;5078201;28;20044;-74
2023/03/08 10:45:23;;;;;;;21.80;10.18;;;;;;;7.11;54.22;94494.44;5076873;28;20037;-76
2023/03/08 10:47:59;;;;;;;23.67;11.18;;;;;;;6.84;54.66;94495.13;5074736;28;20123;-75
2023/03/08 10:50:29;;;;;;;19.83;10.20;;;;;;;6.69;55.91;94500.09;5073277;28;20051;-75
2023/03/08 10:53:07;;;;;;;23.33;11.73;;;;;;;6.70;56.59;94500.88;5073863;28;20052;-74
2023/03/08 10:55:42;;;;;;;24.98;12.00;;;;;;;6.54;56.68;94496.16;5073613;28;20040;-75
2023/03/08 10:58:28;;;;;;;24.98;11.95;;;;;;;6.30;57.58;94500.72;5072630;28;21450;-75
2023/03/08 11:00:57;;;;;;;25.02;11.68;;;;;;;6.16;58.17;94504.56;5068391;28;20044;-75
2023/03/08 11:03:25;;;;;;;28.42;12.38;;;;;;;6.11;58.55;94503.94;5072708;28;20044;-75
2023/03/08 11:05:55;;;;;;;26.00;10.98;;;;;;;5.99;59.82;94505.50;5073059;28;20037;-76
2023/03/08 11:08:24;;;;;;;23.58;10.90;;;;;;;5.82;61.31;94510.25;5073154;28;20058;-75
2023/03/08 11:11:00;;;;;;;30.70;12.02;;;;;;;5.69;62.77;94512.13;5073080;28;20059;-75
2023/03/08 11:13:30;;;;;;;19.70;10.27;;;;;;;5.49;65.29;94500.25;5072854;28;20710;-75
2023/03/08 11:16:16;;;;;;;25.42;8.75;;;;;;;5.37;64.91;94506.34;5072613;28;20043;-74
2023/03/08 11:18:53;;;;;;;15.50;7.03;;;;;;;5.14;66.00;94508.59;5060116;28;20047;-74
2023/03/08 11:21:35;;;;;;;23.52;7.38;;;;;;;4.95;69.04;94484.75;5072246;28;20041;-74
2023/03/08 11:24:17;;;;;;;21.25;8.20;;;;;;;5.01;70.43;94490.75;5072327;28;20048;-74
2023/03/08 11:26:53;;;;;;;26.60;9.23;;;;;;;4.82;72.94;94480.41;5072845;28;20068;-74
2023/03/08 11:29:30;;;;;;;20.50;9.85;;;;;;;4.90;73.38;94493.03;5072149;28;20048;-75
2023/03/08 11:32:06;;;;;;;27.90;11.75;;;;;;;4.96;72.99;94489.03;5067780;28;20052;-75
2023/03/08 11:34:58;;;;;;;23.95;10.38;;;;;;;4.96;70.99;94489.03;5072699;28;20036;-75